Главная страница
METAR-TAF:

METAR-TAF

Аэропорты :

Закаталы, Азербайджан

Парзиван

широта: 41-33-44N, долгота: 46-40-02E, высота над уровнем моря: 330 м

Текущие метеонаблюдения

Эта сводка был подготовлена 36 минут назад, в 04:00 UTC
Ветер 2 Узел от юго-восточный
Температура 0°C
Влажность 93%
Давление 1022 hPa
Видимость 10 км и более
Рассеянная облачность на высоте 2800 фута

METAR: UBBY 170400Z 13002KT 9999 BKN028 00/M01 Q1022 R33/////// NOSIG RMK MT OBSC

Время: 08:36 (04:36 UTC)

Прогноз

Эта сводка был подготовлена 2 часа и 36 минут назад, в 02:00 UTC
Прогноз действительный с 17-го 03 UTC до 17-го 12 UTC
Ветер 2 Узел переменных направлений
Видимость: 6000 м
Отдельные облака на высоте 1000 фута
Рассеянная облачность на высоте 3000 фута

TAF: UBBY 170200Z 1703/1712 VRB02KT 6000 SCT010 BKN030

Метеонаблюдения и прогнозы для более 4000 аэропортов (сводки METAR и TAF).

Имеющиеся станции представлены на карте желтыми и красными точками.

Чтобы увидеть название станции, наведите на нее мышь.

Затем щелкните, чтобы увидеть метеонаблюдения и метеопрогнозы.

Управление картой: чтобы увеличить масштаб, щелкните зеленые кнопки с черным крестиком; чтобы уменьшить масштаб, щелкните зеленую кнопку с тире; для просмотра соседних карт щелкайте зеленые стрелки.


METAR-TAF: